Hazen, ND

7:47 PM CDT on August 28, 2015 (GMT -0500)
Mercer County Regional | | Change Station
CLOSE
Current Station
Airport
Location: Hazen,
Elevation: 1814 ft
Nearby Weather Stations
Active Advisory: Fire Weather Watch

Elev 1814 ft 47.29 °N, 101.58 °W | Updated 12 minutes ago

Haze
Haze
77 °F
Feels Like 77 °F
N
0
Wind Variable Wind from North

Today
High -- | Low -- °F
--% Chance of Precip.
Yesterday
High -- | Low -- °F
Precip. -- in
6:59 AM 8:34 PM
Waxing Gibbous, 99% visible
Pressure 29.89 in
Visibility 5.0 miles
Clouds Clear
Dew Point 66 °F
Humidity 69%
Rainfall 0.00 in
Snow Depth Not available.
UV 0 out of 12
Pollen 10.10 out of 12
Air Quality Not available.
Flu Activity Not available.
METAR KHZE 290035Z AUTO 00000KT 5SM HZ CLR 25/19 A2989 RMK AO2
Pressure 29.89 in
Visibility 5.0 miles
Clouds Clear
Dew Point 66 °F
Humidity 69%
Rainfall 0.00 in
Snow Depth Not available.
UV 0 out of 12
Pollen 10.10 out of 12
Air Quality Not available.
Flu Activity Not available.
METAR KHZE 290035Z AUTO 00000KT 5SM HZ CLR 25/19 A2989 RMK AO2

10-Day Weather Forecast

×

Almanac

Astronomy

Aug. 28, 2015 Rise Set
Actual Time
Civil Twilight
Nautical Twilight
Astronomical Twilight
Moon
Length of Visible Light
Length of Day
Tomorrow will be .
, % of the Moon is Illuminated

Today's Extremes

State Highs State Lows

Community

WunderPhotos

Upload Photos

1,850,550 photos uploaded!

WunderBlogs® & News

Nearby

Air Quality

  Air Quality AQ Index Pollutant
Not available.

Snow Depth

Station Depth Elevation

Earthquake Activity

City Distance Mag. Time & Date
Minimum magnitude displayed is 2.5.

Coastal Water Temperatures

Place Temperature

Stations

Nearby Weather Stations

Station Location Temp. Windchill Dew Point Humidity Wind Precip. Elev Updated Type
                   
Fire Weather Watch
Statement as of 5:38 PM MDT on August 28, 2015

... Fire Weather Watch remains in effect from Saturday morning
through Saturday evening for gust south winds and low relative
humidity for western North Dakota...

* affected area... fire weather zones 001... 002... 009... 010...
011... 017... 018... 019... 020... 021... 031... 032... 033... 034...
040... 041... 042... 043... 044 and 045.

* Wind... south wind 15 to 25 mph.

* Timing... late Saturday morning through evening.

* Humidity... as low as 15 percent.

* Temperatures... 93 to 99.

* Impacts... any fires that develop could spread rapidly.
Outdoor burning is not recommended.

Precautionary/preparedness actions...

A Fire Weather Watch means that critical fire weather conditions
are forecast to occur. Listen for later forecasts and possible
red flag warnings.



Ayd